Luke King

Recruteur en chef - Sheffield United
4 Déc 2028
Lundi
Processus

Personnalité

Adaptabilité (11) Ambition (9) Controverse (16) Loyauté (12) Pression (1) Professionnalisme (16) Sportivité (6) Tempérament (16)

Profil

Style d'entraînement Démocratique
Diplôme Continental A
Détermination 12
Gestion des joueurs 9
Motivation 12
Discipline 9
Satisfaction professionnelle
100%
Fatigue
0%
Rôle Recruteur en chef
Salaire 72.7K p/s
Contrat 14.03.2029

Performance

Comportement Bon
Efficacité de l'entraînement
46%
Développement des joueurs
55%
Prévention des blessures
65%
Mise en place tactique
40%

Événements récents

A recommandé une cible de transfert maintenant
A recommandé une cible de transfert maintenant
A recommandé une cible de transfert maintenant
A participé à une réunion de recrutement maintenant
A évalué un joueur maintenant
A évalué un joueur maintenant
A évalué un joueur maintenant
A évalué un joueur maintenant

Suivi en cours

207
Joueur Club Statut Capacité Confiance Observé Dernière observation Dernier vote
Ronan Kpakio AC Milan Actif 129 / 126 40% 17 03.12.2028 -
Harrison Armstrong Ipswich Town Actif 137 / 146 40% 6 03.12.2028 -
Noah Markmann Esbjerg Actif 121 / 135 40% 2 03.12.2028 -
Giovanni Leoni Lincoln City Actif 149 / 158 40% 21 02.12.2028 -
Jan Bürger Northampton Town Actif 125 / 130 40% 7 02.12.2028 Observer
José Neto Benfica Actif 127 / 129 40% 2 02.12.2028 -
Miguel Figueiredo Benfica Actif 126 / 135 40% 7 01.12.2028 -
Ayyoub Bouaddi Stoke City Actif 151 / 155 40% 5 01.12.2028 -
Kiani Inge Groningen Actif 116 / 129 40% 4 29.11.2028 -
Aiden Hezarkhani Real Salt Lake Actif 98 / 101 40% 6 29.11.2028 -
Somtochuwku Ezenabo Kwara United Actif 93 / 103 40% 3 29.11.2028 -
Honest Ahanor Atalanta Actif 140 / 153 40% 31 28.11.2028 -
Trey Nyoni Rotherham United Actif 147 / 161 40% 27 28.11.2028 -
Riquelme Thompson-Jones Accrington Stanley Actif 116 / 109 40% 15 27.11.2028 -
Mateo Caballero Defensor Sporting Actif 102 / 122 40% 7 27.11.2028 -
Daniel Banjaqui Benfica Actif 130 / 137 40% 14 26.11.2028 -
Aidan Borland Espanyol Actif 114 / 125 40% 3 26.11.2028 -
Máximo Munarriz San Telmo Actif 97 / 88 40% 4 26.11.2028 -
Veljko Milosavljević Bournemouth Actif 151 / 163 40% 8 24.11.2028 -
Davinchi Getafe Actif 129 / 130 40% 3 24.11.2028 -
Nejc Viher NK Maribor Actif 121 / 145 40% 1 24.11.2028 -
Jonny Shore New York City Actif 99 / 109 40% 9 23.11.2028 -
Rafael Mota Sporting CP Actif 118 / 130 40% 1 23.11.2028 -
Tyson Pearce St. Louis CITY SC Actif 98 / 110 40% 4 22.11.2028 -
Josh King Newcastle United Actif 150 / 153 40% 3 19.11.2028 -
Johan Solstad-Nøis Tromso Actif 99 / 116 40% 3 19.11.2028 -
Drew Baiera New York City Actif 101 / 104 40% 7 17.11.2028 -
Filip Reshane Stabaek Actif 99 / 103 40% 2 16.11.2028 -
Louis Page Leicester City Actif 133 / 139 40% 5 14.11.2028 -
Christos Mouzakitis Hull City Actif 144 / 137 40% 22 13.11.2028 -
Chris Rigg West Ham United Actif 142 / 152 40% 4 13.11.2028 -
Colin Guske Orlando City Actif 100 / 87 40% 10 11.11.2028 -
Eric Klein Real Salt Lake Actif 99 / 120 40% 5 11.11.2028 -
Diego León Rotherham United Actif 128 / 140 40% 6 06.11.2028 -
Celías Ingenthron Platense Actif 117 / 130 40% 6 05.11.2028 -
Mauro Matorras Central Norte Actif 96 / 113 40% 1 05.11.2028 -
Andrija Bulatović Chamois Niortais Actif 133 / 128 40% 2 03.11.2028 -
Gideon Manaseh Ikorodu City Actif 95 / 97 40% 12 29.10.2028 -
Tobías Ramírez River Plate Négociation 134 / 151 40% 6 27.10.2028 -
Tyler Fletcher Rotherham United Actif 116 / 133 40% 8 26.10.2028 -
Snyder Brunell Seattle Sounders Actif 99 / 90 40% 6 16.10.2028 -
Josh Torquato FC Dallas Actif 94 / 111 40% 3 10.10.2028 -
Matthew Dos Santos New York Red Bulls Actif 93 / 90 40% 1 08.10.2028 -
Matías Magdaleno Estudiantes Actif 109 / 102 40% 5 30.09.2028 -
Máximo Magnoli Ferro Carril Oeste Actif 99 / 85 40% 1 26.09.2028 -
Lautaro Dufur Juventud Actif 101 / 122 40% 3 16.09.2028 -
Ayden Heaven Portsmouth Actif 149 / 164 40% 16 15.09.2028 -
Paul Junior Rivers United Actif 94 / 92 40% 2 13.09.2028 -
Triston Rowe Derby County Actif 118 / 114 40% 1 03.09.2028 -
Agustín Medina Lanús Actif 121 / 125 40% 1 30.08.2028 -
Yury Oyarzo Racing Actif 92 / 84 40% 2 24.08.2028 -
Matthew Craig Newport County Négociation 123 / 114 90% 1 07.08.2028 -
Musa Danjuma Umraniyespor Actif 100 / 95 40% 5 31.07.2028 -
Alessio Insignito Spezia Actif 104 / 119 40% 1 31.07.2028 -
Martim Cunha Porto Actif 111 / 122 40% 19 27.07.2028 -
Lamine Bèye Portimonense Actif 117 / 125 40% 2 27.07.2028 -
Jan Bürger Northampton Town Perdu 121 / 131 40% 18 25.07.2028 Observer
Ezra Mayers West Ham United Actif 129 / 126 40% 2 25.07.2028 -
Amine Boukamir Charleroi Actif 106 / 114 40% 1 29.06.2028 -
Olivier Leroux Mouscron Actif 104 / 113 40% 9 28.06.2028 -
Tobiáš Pališčák Zlin Actif 105 / 104 40% 3 26.06.2028 -
Nicolò Moranduzzo Renate Actif 95 / 101 40% 2 26.06.2028 -
Bernardo Lima Porto Actif 110 / 127 40% 5 14.06.2028 -
Andrea Cogoni Cosenza Actif 108 / 118 40% 1 04.06.2028 -
Andrey Ivlev Nizhniy Novgorod Actif 110 / 108 40% 3 03.06.2028 -
Josh Nichols Oldham Athletic Actif 119 / 125 40% 9 30.05.2028 -
Joel Ezra Enyimba Actif 97 / 102 40% 13 28.05.2028 -
Federico Matarán Giana Erminio Actif 101 / 113 40% 3 16.05.2028 -
Jorthy Mokio ADO Den Haag Actif 133 / 145 40% 9 08.05.2028 -
Josh Acheampong Everton Actif 142 / 141 40% 10 26.04.2028 -
Matvey Bardachev Zenit Actif 111 / 113 40% 4 25.03.2028 -
Nicolas Sport Recife Actif 110 / 128 40% 1 12.03.2028 -
Toni Fruk Talleres Actif 132 / 133 66% 1 01.01.2028 Approuver
Bitello Universidad de Chile Actif 135 / 135 68% 1 01.01.2028 Approuver
Mao Hosoya Santos Actif 134 / 135 67% 1 01.01.2028 Approuver
Caleb Yirenkyi Coventry City Actif 141 / 149 40% 15 30.12.2027 -
Esquerdinha Notts County Actif 119 / 131 40% 5 28.12.2027 -
Matias Siltanen Malmo FF Actif 121 / 113 40% 10 27.12.2027 -
Harbor Miller LA Galaxy Actif 96 / 90 40% 6 27.12.2027 -
Zane Albarus Shrewsbury Town Actif 101 / 118 40% 7 25.12.2027 -
Adrian Gill Atlanta United FC Actif 91 / 115 40% 7 19.12.2027 -
Archie Gray Southampton Actif 153 / 157 40% 15 18.12.2027 -
Oscar Steinke Brånby Hammarby Actif 106 / 95 40% 2 09.12.2027 -
Lucas Bergvall Tottenham Actif 151 / 148 40% 10 06.12.2027 -
Mohamed Moussa Koïta Mathare United Actif 97 / 89 40% 5 03.12.2027 -
Victor Hernandez Santa Fe Actif 124 / 129 40% 7 02.12.2027 -
Diego Vargas Universidad de Concepcion Actif 91 / 104 40% 6 29.11.2027 -
Ignacio Fernández Boston River Actif 91 / 102 40% 2 25.11.2027 -
Hugo Rojas Instituto Actif 107 / 105 40% 1 19.11.2027 -
Adrian Skogmar Malmo FF Actif 118 / 131 40% 2 19.10.2027 -
Matthew Litherland Harrogate Town Actif 110 / 131 40% 1 18.10.2027 -
Agustín Obregón River Plate Actif 112 / 133 40% 1 08.10.2027 -
Nazareno Roselli Defensa y Justicia Actif 114 / 124 40% 2 25.09.2027 -
Alejandro Leiva Patronato Actif 96 / 113 40% 2 18.09.2027 -
Luka Vušković Tottenham Perdu 149 / 166 40% 1 16.09.2027 -
Sascha Britschgi AC Milan Actif 123 / 123 40% 13 19.08.2027 -
Eliás Montiel Borussia Dortmund Actif 135 / 139 40% 1 11.08.2027 -
Kazunari Kita Real Sociedad Actif 105 / 109 40% 3 10.08.2027 -
Gonçalo Oliveira Benfica Actif 116 / 134 40% 6 08.08.2027 -
Charlie Gray Fleetwood Town Actif 99 / 103 40% 4 03.08.2027 -
Pedro Vian Seewald Dolomiti Bellunesi Actif 95 / 112 40% 1 02.08.2027 -
Sheyi Ojo Crewe Alexandra Actif 114 / 120 86% 1 21.06.2027 Approuver
Godwin Oham Warri Wolves Actif 88 / 104 40% 4 30.05.2027 -
Riley Owen Stevenage Actif 102 / 94 40% 7 29.05.2027 -
Hosea Michael Remo Stars Actif 87 / 102 40% 2 25.05.2027 -
Tiago Freitas Benfica Actif 111 / 106 40% 5 24.05.2027 -
Jenson Jones Walsall Actif 91 / 85 40% 9 23.05.2027 -
Issa Yusuf Shooting Stars Actif 90 / 99 40% 1 22.05.2027 -
Tommaso Cecotti Carpi Actif 93 / 106 40% 2 11.05.2027 -
Afriyie Sulemana WAFA Actif 88 / 80 40% 5 01.05.2027 -
Ahmed Akinyele Remo Stars Actif 93 / 92 40% 1 28.04.2027 -
Samuele di Benedetto Twente Actif 110 / 110 40% 3 24.04.2027 -
Leandro Martins Benfica Actif 93 / 106 40% 2 19.04.2027 -
Bence Dárdai VfL Wolfsburg Actif 133 / 128 40% 1 18.04.2027 -
David Ozoh Derby County Actif 117 / 122 40% 3 10.04.2027 -
Dean Jali Platinum Stars Actif 93 / 78 40% 3 10.04.2027 -
Kamaldeen Atiemo Wa All Stars Actif 100 / 114 40% 1 03.04.2027 -
James Dornelly Peterborough United Actif 98 / 99 40% 1 28.03.2027 -
Nico O'Reilly Manchester City Actif 150 / 143 40% 2 05.03.2027 -
Sampson Dweh Mallorca Actif 133 / 134 66% 1 01.01.2027 Approuver
Yeremy Pino Crystal Palace Actif 146 / 162 40% 1 31.12.2026 -
Aaron Hickey Brentford Actif 144 / 145 40% 1 31.12.2026 -
Mathys Tel Tottenham Actif 141 / 159 40% 5 30.12.2026 -
Ousseynou Seck Randers Actif 110 / 112 40% 1 30.12.2026 -
Dani Ángel Sampdoria Actif 93 / 103 40% 2 27.12.2026 -
Ruben Ramos LA Galaxy Actif 91 / 94 40% 1 26.12.2026 -
Mateus Mané Burnley Actif 133 / 134 40% 12 24.12.2026 -
Joseph George Aigle Royal de Moungo Actif 84 / 92 40% 4 24.12.2026 -
George Brown Sheffield Wednesday Actif 96 / 103 40% 1 21.12.2026 -
Oswin Appollis Orlando Pirates Actif 119 / 115 40% 1 21.12.2026 -
Rodrigo Gomes Wolverhampton Actif 136 / 133 40% 1 19.12.2026 -
Ezekiel Kwame Alladoh Philadelphia Union Actif 111 / 120 40% 7 18.12.2026 -
Luke Baartman Ajax Cape Town Actif 97 / 113 40% 3 16.12.2026 -
Teboho Zwane Ajax Cape Town Actif 96 / 89 40% 5 16.12.2026 -
Rocco Vata Watford Actif 119 / 135 40% 3 16.12.2026 -
Giacomo Raspadori Atalanta Actif 150 / 138 40% 1 09.12.2026 -
Matt O'Riley Brighton Actif 146 / 139 40% 1 09.12.2026 -
Leo Castledine Middlesbrough Actif 124 / 145 40% 4 08.12.2026 -
Naledi Hlongwane Wa All Stars Actif 89 / 96 40% 3 04.12.2026 -
Bogdan Petrović TSC Actif 108 / 124 40% 1 01.12.2026 -
Mikel Gogorza Brondby Actif 122 / 123 40% 1 29.11.2026 -
Tadeo Allende Inter Miami CF Actif 127 / 121 40% 3 27.11.2026 -
Bongani Zungu Ajax Cape Town Actif 120 / 122 40% 3 27.11.2026 -
Pedro Porro Tottenham Actif 151 / 139 40% 2 27.11.2026 -
Tosin Olawale El-Kanemi Warriors Actif 86 / 84 40% 1 27.11.2026 -
Will Lankshear Middlesbrough Actif 123 / 128 40% 2 24.11.2026 -
Gabriel Monjes Hamrun Spartans Actif 86 / 85 40% 1 23.11.2026 -
Matías Contrera Hrvatski Dragovoljac Actif 98 / 111 40% 3 21.11.2026 -
Miloš Jovičić Zabbar St. Patrick Actif 90 / 95 40% 5 20.11.2026 -
Jalal Abdullai Molde Actif 113 / 101 40% 1 19.11.2026 -
Chemsdine Talbi Sunderland Actif 134 / 156 40% 1 19.11.2026 -
Kevin Fulham Actif 145 / 160 40% 1 19.11.2026 -
Mihailo Ivanović Aston Villa Actif 125 / 124 40% 1 16.11.2026 -
Chineme Chinonso Ikorodu City Actif 87 / 107 40% 2 14.11.2026 -
Maren Kefas Plateau United Actif 86 / 85 40% 1 13.11.2026 -
Youssoufa Moukoko FC Copenhagen Actif 125 / 113 40% 1 12.11.2026 -
Darren Yapi Colorado Rapids Actif 106 / 90 40% 3 11.11.2026 -
Noni Madueke Arsenal Actif 157 / 168 40% 1 09.11.2026 -
Xavi Simons Tottenham Actif 153 / 167 40% 1 09.11.2026 -
Lwanda Mbanjwa Platinum Stars Actif 93 / 85 40% 1 06.11.2026 -
Joseph Arumala Ikorodu City Actif 90 / 80 40% 1 05.11.2026 -
Jacob Greaves Ipswich Town Actif 131 / 121 40% 1 05.11.2026 -
Milan van Ewijk Coventry City Actif 134 / 119 40% 1 05.11.2026 -
Marco Pašalić Orlando City Actif 122 / 124 40% 2 03.11.2026 -
Mats Wieffer Brighton Actif 143 / 144 40% 2 03.11.2026 -
Csanád Vilmos Dénes Debrecen Actif 104 / 92 40% 1 02.11.2026 -
Jadon Sancho Manchester United Actif 147 / 163 40% 2 01.11.2026 -
Kimito Nono Yokohama F. Marinos Actif 123 / 144 40% 1 01.11.2026 -
Iván Angulo Orlando City Actif 132 / 120 40% 1 28.10.2026 -
Kimani Stewart-Baynes Colorado Rapids Actif 88 / 86 40% 2 26.10.2026 -
Harvey Sarajian Orlando City Actif 88 / 78 40% 1 24.10.2026 -
Ilyas Ansah Hull City Actif 132 / 148 40% 2 22.10.2026 -
Abubakar Garba Nasarawa United Actif 94 / 104 40% 1 21.10.2026 -
Quinn Sullivan Philadelphia Union Actif 120 / 130 40% 1 20.10.2026 -
Bénie Traoré New York City Actif 126 / 129 40% 3 17.10.2026 -
Facundo Mura Inter Miami CF Actif 127 / 138 40% 1 17.10.2026 -
Martín Ojeda Orlando City Actif 131 / 112 40% 2 15.10.2026 -
Antony Portland Timbers Actif 136 / 150 40% 2 14.10.2026 -
Diego Luna Real Salt Lake Actif 125 / 126 40% 2 14.10.2026 -
Telasco Segovia Inter Miami CF Actif 128 / 143 40% 1 14.10.2026 -
Óscar Mingueza Crystal Palace Actif 152 / 153 40% 1 13.10.2026 -
Welington Southampton Actif 125 / 123 40% 1 13.10.2026 -
Max Bird Birmingham Actif 135 / 138 40% 1 10.10.2026 -
Aidan Morris Middlesbrough Actif 128 / 125 40% 1 10.10.2026 -
Conrad Wallem Djurgarden Actif 132 / 135 40% 1 10.10.2026 -
David Brekalo Orlando City Actif 126 / 126 40% 2 08.10.2026 -
James Garner Everton Actif 145 / 161 40% 1 08.10.2026 -
Andy Rojas New York Red Bulls Actif 91 / 105 40% 2 07.10.2026 -
Juan Mosquera Portland Timbers Actif 128 / 106 40% 1 27.09.2026 -
Kelvin Yeboah Minnesota United FC Actif 133 / 115 40% 1 27.09.2026 -
Elias Achouri San Diego Football Club Actif 127 / 133 40% 3 26.09.2026 -
Jesus Ferreira Seattle Sounders Actif 125 / 113 40% 2 25.09.2026 -
Marcelo Allende Mamelodi Sundowns Actif 136 / 109 40% 1 23.09.2026 -
Lukas Engel Real Salt Lake Actif 121 / 144 40% 1 22.09.2026 -
Hannes Wolf New York City Actif 130 / 107 40% 3 21.09.2026 -
Agustín Anello Philadelphia Union Actif 122 / 130 40% 1 21.09.2026 -
André Wolverhampton Actif 146 / 153 40% 1 21.09.2026 -
Luke McNally Bristol City Actif 134 / 123 40% 1 21.09.2026 -
Santiago Rodríguez Columbus Crew Actif 132 / 147 40% 2 19.09.2026 -
Nicolò Savona Nottingham Forest Actif 135 / 147 40% 1 19.09.2026 -
Sal Olivas Philadelphia Union Actif 83 / 101 40% 1 15.09.2026 -
David Da Costa Portland Timbers Actif 126 / 133 40% 1 12.09.2026 -
Talles Magno New York City Actif 125 / 130 40% 1 11.09.2026 -
Rui Modesto Vancouver Whitecaps Actif 123 / 143 40% 1 11.09.2026 -
Lucas Sanabria LA Galaxy Actif 120 / 142 40% 1 08.09.2026 -
Griffin Yow New England Revolution Actif 119 / 113 40% 1 07.09.2026 -
Amin Boudri Los Angeles Football Club Actif 127 / 111 40% 1 07.09.2026 -